createdAt,value
2022-09-20T00:01:33.616Z,7.79
2022-09-20T00:04:05.758Z,7.77
2022-09-20T00:06:35.497Z,7.81
2022-09-20T00:09:05.607Z,7.82
2022-09-20T00:11:35.517Z,7.83
2022-09-20T00:14:08.997Z,7.85
2022-09-20T00:16:40.258Z,7.86
2022-09-20T00:19:10.148Z,7.84
2022-09-20T00:21:38.411Z,7.83
2022-09-20T00:24:07.068Z,7.87
2022-09-20T00:26:35.052Z,7.86
2022-09-20T00:29:03.755Z,7.87
2022-09-20T00:31:31.943Z,7.86
2022-09-20T00:34:18.537Z,7.86
2022-09-20T00:36:46.918Z,7.82
2022-09-20T00:39:16.367Z,7.84
2022-09-20T00:41:44.733Z,7.83
2022-09-20T00:44:53.958Z,7.86
2022-09-20T00:47:49.197Z,7.83
2022-09-20T00:50:27.409Z,7.79
2022-09-20T00:53:04.547Z,7.72
2022-09-20T00:55:36.384Z,7.65
2022-09-20T00:58:06.052Z,7.56
2022-09-20T01:00:34.227Z,7.49
2022-09-20T01:03:08.512Z,7.44
2022-09-20T01:05:39.173Z,7.41
2022-09-20T01:08:09.074Z,7.33
2022-09-20T01:10:37.683Z,7.28
2022-09-20T01:13:06.016Z,7.22
2022-09-20T01:15:36.664Z,7.18
2022-09-20T01:18:07.759Z,7.14
2022-09-20T01:20:39.196Z,7.05
2022-09-20T01:23:26.126Z,7.00
2022-09-20T01:26:03.536Z,7.01
2022-09-20T01:28:32.380Z,6.97
2022-09-20T01:31:27.828Z,6.93
2022-09-20T01:34:13.662Z,6.87
2022-09-20T01:36:48.965Z,6.81
2022-09-20T01:39:25.860Z,6.72
2022-09-20T01:41:58.899Z,6.66
2022-09-20T01:44:38.148Z,6.63
2022-09-20T01:47:11.842Z,6.58
2022-09-20T01:50:02.286Z,6.55
2022-09-20T01:52:39.543Z,6.55
2022-09-20T01:55:17.470Z,6.54
2022-09-20T01:58:03.569Z,6.53
2022-09-20T02:00:44.032Z,6.51
2022-09-20T02:03:31.402Z,6.49
2022-09-20T02:06:08.670Z,6.45
2022-09-20T02:08:58.507Z,6.41
2022-09-20T02:12:05.264Z,6.35
2022-09-20T02:15:07.382Z,6.29
2022-09-20T02:18:00.892Z,6.27
2022-09-20T02:21:05.607Z,6.27
2022-09-20T02:23:56.667Z,6.25
2022-09-20T02:26:51.089Z,6.23
2022-09-20T02:29:56.782Z,6.18
2022-09-20T02:32:27.950Z,6.09
2022-09-20T02:35:03.653Z,6.01
2022-09-20T02:38:02.640Z,5.94
2022-09-20T02:41:18.285Z,5.82
2022-09-20T02:43:58.501Z,5.71
2022-09-20T02:46:51.670Z,5.64
2022-09-20T02:49:46.036Z,5.61
2022-09-20T02:52:42.443Z,5.60
2022-09-20T02:55:18.022Z,5.57
2022-09-20T02:58:05.791Z,5.47
2022-09-20T03:00:44.909Z,5.43
2022-09-20T03:03:35.813Z,5.37
2022-09-20T03:06:27.747Z,5.30
2022-09-20T03:09:18.651Z,5.22
2022-09-20T03:12:02.391Z,5.10
2022-09-20T03:14:55.992Z,4.97
2022-09-20T03:17:36.648Z,4.81
2022-09-20T03:20:17.903Z,4.73
2022-09-20T03:23:01.773Z,4.69
2022-09-20T03:25:54.348Z,4.65
2022-09-20T03:28:25.104Z,4.62
2022-09-20T03:31:17.435Z,4.64
2022-09-20T03:34:06.145Z,4.66
2022-09-20T03:36:39.775Z,4.65
2022-09-20T03:39:37.724Z,4.57
2022-09-20T03:42:19.794Z,4.42
2022-09-20T03:45:23.654Z,4.32
2022-09-20T03:47:58.378Z,4.26
2022-09-20T03:50:51.614Z,4.24
2022-09-20T03:53:40.598Z,4.26
2022-09-20T03:56:20.823Z,4.29
2022-09-20T03:59:19.813Z,4.30
2022-09-20T04:02:21.934Z,4.32
2022-09-20T04:05:02.826Z,4.33
2022-09-20T04:08:01.551Z,4.30
2022-09-20T04:10:54.567Z,4.31
2022-09-20T04:13:36.750Z,4.40
2022-09-20T04:16:19.214Z,4.58
2022-09-20T04:18:57.371Z,4.79
2022-09-20T04:21:42.341Z,4.97
2022-09-20T04:24:40.033Z,5.15
2022-09-20T04:27:26.068Z,5.33
2022-09-20T04:30:17.475Z,5.47
2022-09-20T04:33:04.251Z,5.58
2022-09-20T04:36:12.815Z,5.67
2022-09-20T04:38:41.396Z,5.88
2022-09-20T04:41:16.676Z,6.14
2022-09-20T04:43:53.990Z,6.53
2022-09-20T04:47:18.568Z,6.96
2022-09-20T04:50:13.281Z,7.37
2022-09-20T04:53:00.612Z,7.47
2022-09-20T04:56:03.908Z,7.78
2022-09-20T04:59:00.707Z,7.89
2022-09-20T05:02:08.333Z,7.86
2022-09-20T05:05:03.264Z,7.87
2022-09-20T05:08:12.565Z,8.43
2022-09-20T05:11:36.565Z,9.13
2022-09-20T05:14:09.904Z,9.72
2022-09-20T05:17:40.495Z,9.80
2022-09-20T05:20:37.304Z,10.08
2022-09-20T05:23:33.388Z,10.34
2022-09-20T05:26:23.476Z,10.20
2022-09-20T05:29:25.891Z,9.99
2022-09-20T05:32:18.668Z,9.80
2022-09-20T05:35:13.216Z,9.58
2022-09-20T05:38:00.151Z,9.43
2022-09-20T05:41:00.351Z,9.41
2022-09-20T05:43:37.130Z,10.08
2022-09-20T05:46:17.709Z,10.83
2022-09-20T05:49:12.385Z,11.23
2022-09-20T05:52:17.078Z,11.43
2022-09-20T05:55:22.502Z,11.93
2022-09-20T05:58:22.394Z,12.68
2022-09-20T06:01:28.124Z,13.06
2022-09-20T06:04:39.283Z,13.23
2022-09-20T06:07:33.426Z,13.48
2022-09-20T06:11:33.533Z,13.91
2022-09-20T06:27:48.075Z,13.46
2022-09-20T06:30:31.669Z,13.04
2022-09-20T06:33:15.910Z,12.77
2022-09-20T06:36:26.696Z,12.96
2022-09-20T06:39:45.957Z,12.89
2022-09-20T06:42:14.906Z,12.57
2022-09-20T06:44:46.330Z,12.53
2022-09-20T06:47:17.403Z,12.46
2022-09-20T06:49:50.618Z,12.37
2022-09-20T06:52:23.304Z,12.32
2022-09-20T06:54:56.308Z,12.36
2022-09-20T06:57:40.847Z,12.48
2022-09-20T07:00:18.521Z,12.55
2022-09-20T07:02:47.288Z,12.37
2022-09-20T07:05:22.828Z,12.40
2022-09-20T07:07:57.807Z,12.64
2022-09-20T07:10:29.376Z,13.05
2022-09-20T07:13:05.942Z,13.91
2022-09-20T07:15:36.590Z,14.80
2022-09-20T07:18:09.252Z,15.58
2022-09-20T07:20:49.694Z,15.79
2022-09-20T07:23:59.391Z,15.44
2022-09-20T07:26:35.856Z,15.00
2022-09-20T07:29:14.317Z,15.29
2022-09-20T07:31:49.678Z,15.83
2022-09-20T07:34:23.206Z,15.89
2022-09-20T07:37:01.461Z,15.93
2022-09-20T07:39:30.698Z,16.31
2022-09-20T07:42:02.020Z,16.41
2022-09-20T07:44:30.809Z,16.16
2022-09-20T07:47:00.751Z,16.01
2022-09-20T07:49:32.178Z,15.76
2022-09-20T07:52:01.599Z,15.38
2022-09-20T07:54:31.799Z,15.07
2022-09-20T07:57:05.914Z,14.92
2022-09-20T07:59:34.332Z,14.87
2022-09-20T08:02:05.781Z,14.73
2022-09-20T08:04:41.433Z,14.91
2022-09-20T08:07:13.733Z,15.79
2022-09-20T08:27:58.160Z,19.90
2022-09-20T08:30:35.659Z,18.78
2022-09-20T08:33:07.577Z,18.07
2022-09-20T08:35:38.539Z,17.32
2022-09-20T08:41:04.468Z,16.47
2022-09-20T08:43:45.264Z,16.49
2022-09-20T08:46:23.360Z,17.00
2022-09-20T08:48:54.410Z,18.02
2022-09-20T08:51:30.630Z,18.77
2022-09-20T08:54:00.770Z,18.80
2022-09-20T08:56:42.858Z,18.49
2022-09-20T08:59:18.872Z,18.25
2022-09-20T09:01:54.453Z,18.00
2022-09-20T09:04:31.393Z,17.81
2022-09-20T09:07:00.614Z,17.60
2022-09-20T09:09:30.057Z,17.33
2022-09-20T09:12:01.927Z,16.99
2022-09-20T09:14:49.159Z,16.90
2022-09-20T09:17:27.406Z,16.79
2022-09-20T09:20:22.868Z,16.98
2022-09-20T09:23:03.266Z,16.91
2022-09-20T09:26:06.729Z,16.75
2022-09-20T09:28:57.892Z,16.39
2022-09-20T09:35:01.059Z,15.75
2022-09-20T09:38:12.762Z,15.91
2022-09-20T09:41:22.652Z,16.07
2022-09-20T09:47:41.828Z,15.53
2022-09-20T09:50:50.371Z,15.30
2022-09-20T09:53:33.087Z,15.13
2022-09-20T09:56:43.414Z,15.09
2022-09-20T09:59:53.190Z,15.02
2022-09-20T10:02:55.877Z,15.06
2022-09-20T10:06:13.826Z,15.15
2022-09-20T10:09:12.942Z,15.23
2022-09-20T10:11:59.360Z,15.24
2022-09-20T10:14:41.344Z,15.21
2022-09-20T10:17:20.816Z,15.14
2022-09-20T10:21:04.600Z,15.03
2022-09-20T10:24:04.449Z,14.95
2022-09-20T10:26:45.022Z,15.01
2022-09-20T10:29:38.542Z,15.12
2022-09-20T10:32:20.858Z,15.17
2022-09-20T10:35:03.976Z,15.16
2022-09-20T10:37:38.034Z,15.17
2022-09-20T10:40:15.850Z,15.24
2022-09-20T10:43:10.894Z,15.02
2022-09-20T10:46:30.793Z,14.91
2022-09-20T10:49:18.920Z,14.68
2022-09-20T10:52:18.910Z,14.72
2022-09-20T10:55:09.908Z,14.73
2022-09-20T10:57:57.669Z,14.59
2022-09-20T11:00:34.287Z,14.52
2022-09-20T11:03:27.719Z,14.67
2022-09-20T11:06:08.327Z,14.76
2022-09-20T11:08:42.034Z,14.91
2022-09-20T11:11:19.290Z,14.89
2022-09-20T11:14:10.330Z,14.86
2022-09-20T11:17:02.875Z,14.76
2022-09-20T11:19:37.848Z,14.78
2022-09-20T11:22:48.830Z,14.75
2022-09-20T11:25:44.695Z,14.78
2022-09-20T11:28:25.888Z,14.69
2022-09-20T11:31:04.129Z,14.53
2022-09-20T11:33:41.637Z,14.35
2022-09-20T11:36:17.741Z,14.27
2022-09-20T11:38:57.766Z,14.23
2022-09-20T11:41:30.635Z,14.20
2022-09-20T11:44:10.801Z,14.18
2022-09-20T11:46:52.738Z,14.06
2022-09-20T11:49:44.411Z,13.97
2022-09-20T11:52:30.435Z,13.93
2022-09-20T11:55:23.002Z,13.82
2022-09-20T11:58:09.705Z,13.70
2022-09-20T12:00:43.662Z,13.58
2022-09-20T12:03:34.345Z,13.59
2022-09-20T12:06:26.347Z,13.51
2022-09-20T12:08:59.428Z,13.40
2022-09-20T12:11:43.986Z,13.40
2022-09-20T12:14:38.621Z,13.42
2022-09-20T12:17:26.679Z,13.55
2022-09-20T12:19:54.771Z,13.64
2022-09-20T12:22:29.620Z,13.66
2022-09-20T12:25:36.412Z,13.69
2022-09-20T12:28:05.496Z,13.76
2022-09-20T12:30:33.978Z,13.79
2022-09-20T12:33:04.133Z,13.87
2022-09-20T12:35:44.625Z,13.94
2022-09-20T12:38:21.753Z,13.90
2022-09-20T12:41:10.506Z,13.87
2022-09-20T12:43:49.445Z,13.85
2022-09-20T12:46:24.668Z,13.82
2022-09-20T12:49:41.227Z,13.74
2022-09-20T12:52:58.407Z,13.56
2022-09-20T12:55:30.395Z,13.37
2022-09-20T12:58:04.516Z,13.33
2022-09-20T13:00:40.781Z,13.24
2022-09-20T13:03:36.089Z,13.18
2022-09-20T13:06:08.737Z,13.10
2022-09-20T13:09:08.674Z,13.17
2022-09-20T13:11:54.854Z,13.19
2022-09-20T13:14:26.989Z,13.15
2022-09-20T13:17:02.928Z,13.17
2022-09-20T13:19:38.187Z,13.15
2022-09-20T13:22:46.362Z,13.16
2022-09-20T13:25:17.424Z,13.14
2022-09-20T13:28:08.425Z,13.10
2022-09-20T13:30:36.633Z,13.07
2022-09-20T13:33:25.066Z,13.08
2022-09-20T13:35:57.227Z,13.01
2022-09-20T13:38:30.313Z,13.00
2022-09-20T13:41:09.212Z,12.92
2022-09-20T13:43:42.760Z,12.90
2022-09-20T13:46:13.630Z,12.92
2022-09-20T13:48:42.779Z,12.93
2022-09-20T13:51:20.209Z,12.92
2022-09-20T13:53:48.382Z,12.93
2022-09-20T13:56:28.872Z,12.93
2022-09-20T13:59:01.134Z,12.93
2022-09-20T14:01:32.797Z,12.92
2022-09-20T14:04:16.975Z,12.94
2022-09-20T14:06:45.897Z,12.98
2022-09-20T14:09:40.561Z,12.97
2022-09-20T14:12:11.704Z,12.92
2022-09-20T14:14:41.385Z,12.94
2022-09-20T14:17:12.815Z,12.97
2022-09-20T14:19:43.057Z,13.01
2022-09-20T14:22:26.945Z,13.01
2022-09-20T14:25:25.359Z,12.90
2022-09-20T14:28:06.810Z,12.79
2022-09-20T14:30:37.201Z,12.77
2022-09-20T14:33:08.105Z,12.77
2022-09-20T14:35:36.255Z,12.71
2022-09-20T14:38:12.642Z,12.70
2022-09-20T14:40:44.940Z,12.65
2022-09-20T14:43:26.077Z,12.56
2022-09-20T14:45:57.546Z,12.51
2022-09-20T14:48:25.762Z,12.44
2022-09-20T14:51:25.688Z,12.35
2022-09-20T14:54:14.127Z,12.27
2022-09-20T14:56:57.573Z,12.23
2022-09-20T14:59:28.709Z,12.22
2022-09-20T15:01:59.339Z,12.20
2022-09-20T15:04:28.805Z,12.17
2022-09-20T15:07:01.230Z,12.11
2022-09-20T15:09:30.155Z,12.03
2022-09-20T15:12:06.435Z,11.96
2022-09-20T15:14:37.859Z,11.93
2022-09-20T15:17:06.649Z,11.92
2022-09-20T15:19:34.890Z,11.91
2022-09-20T15:22:03.148Z,11.91
2022-09-20T15:24:31.249Z,11.87
2022-09-20T15:26:59.497Z,11.86
2022-09-20T15:29:27.683Z,11.85
2022-09-20T15:31:55.915Z,11.81
2022-09-20T15:34:24.229Z,11.77
2022-09-20T15:36:54.174Z,11.75
2022-09-20T15:39:25.616Z,11.76
2022-09-20T15:41:54.047Z,11.75
2022-09-20T15:44:22.185Z,11.74
2022-09-20T15:46:51.560Z,11.75
2022-09-20T15:49:23.971Z,11.77
2022-09-20T15:51:52.781Z,11.81
2022-09-20T15:54:21.403Z,11.86
2022-09-20T15:56:53.328Z,11.86
2022-09-20T15:59:23.349Z,11.87
2022-09-20T16:01:51.757Z,11.85
2022-09-20T16:04:20.625Z,11.79
2022-09-20T16:06:50.328Z,11.67
2022-09-20T16:09:21.439Z,11.51
2022-09-20T16:11:49.804Z,11.35
2022-09-20T16:14:17.963Z,11.19
2022-09-20T16:16:46.199Z,11.04
2022-09-20T16:19:17.391Z,10.92
2022-09-20T16:21:58.299Z,10.83
2022-09-20T16:24:29.971Z,10.75
2022-09-20T16:27:00.833Z,10.68
2022-09-20T16:29:30.738Z,10.61
2022-09-20T16:32:00.462Z,10.51
2022-09-20T16:34:31.888Z,10.38
2022-09-20T16:37:03.194Z,10.28
2022-09-20T16:39:32.328Z,10.20
2022-09-20T16:42:05.982Z,10.12
2022-09-20T16:44:36.501Z,10.03
2022-09-20T16:47:10.785Z,9.95
2022-09-20T16:49:40.304Z,9.90
2022-09-20T16:52:09.627Z,9.83
2022-09-20T16:54:38.112Z,9.72
2022-09-20T16:57:06.473Z,9.62
2022-09-20T16:59:34.710Z,9.53
2022-09-20T17:02:02.879Z,9.50
2022-09-20T17:04:31.260Z,9.45
2022-09-20T17:06:59.428Z,9.43
2022-09-20T17:09:28.470Z,9.36
2022-09-20T17:11:56.673Z,9.31
2022-09-20T17:14:25.274Z,9.25
2022-09-20T17:16:53.661Z,9.13
2022-09-20T17:19:21.837Z,9.02
2022-09-20T17:21:51.194Z,8.87
2022-09-20T17:24:21.338Z,8.73
2022-09-20T17:26:50.900Z,8.57
2022-09-20T17:29:20.428Z,8.42
2022-09-20T17:31:55.705Z,8.32
2022-09-20T17:34:26.676Z,8.24
2022-09-20T17:36:55.573Z,8.19
2022-09-20T17:39:24.296Z,8.12
2022-09-20T17:41:52.841Z,8.11
2022-09-20T17:44:21.058Z,8.04
2022-09-20T17:46:50.931Z,7.87
2022-09-20T17:49:21.836Z,7.77
2022-09-20T17:51:52.176Z,7.72
2022-09-20T17:54:21.005Z,7.64
2022-09-20T17:56:52.030Z,7.50
2022-09-20T17:59:20.790Z,7.44
2022-09-20T18:01:51.654Z,7.39
2022-09-20T18:04:24.898Z,7.31
2022-09-20T18:06:55.111Z,7.32
2022-09-20T18:09:25.532Z,7.27
2022-09-20T18:11:55.880Z,7.30
2022-09-20T18:14:27.692Z,7.25
2022-09-20T18:17:01.224Z,7.30
2022-09-20T18:19:33.593Z,7.26
2022-09-20T18:22:04.385Z,7.30
2022-09-20T18:24:32.956Z,7.28
2022-09-20T18:27:01.296Z,7.29
2022-09-20T18:29:33.572Z,7.23
2022-09-20T18:32:02.125Z,7.18
2022-09-20T18:34:32.136Z,7.08
2022-09-20T18:37:01.449Z,7.02
2022-09-20T18:39:32.618Z,7.02
2022-09-20T18:42:02.334Z,7.02
2022-09-20T18:44:33.843Z,7.04
2022-09-20T18:47:05.842Z,7.08
2022-09-20T18:49:34.565Z,7.13
2022-09-20T18:52:03.944Z,7.15
2022-09-20T18:54:33.700Z,7.10
2022-09-20T18:57:02.997Z,7.09
2022-09-20T18:59:31.296Z,7.01
2022-09-20T19:02:17.974Z,6.90
2022-09-20T19:05:14.180Z,6.76
2022-09-20T19:07:44.857Z,6.64
2022-09-20T19:10:24.928Z,6.38
2022-09-20T19:13:11.951Z,6.31
2022-09-20T19:16:01.515Z,6.22
2022-09-20T19:18:59.059Z,6.21
2022-09-20T19:21:45.870Z,6.18
2022-09-20T19:24:42.256Z,6.08
2022-09-20T19:27:14.098Z,5.99
2022-09-20T19:29:42.481Z,6.00
2022-09-20T19:32:21.873Z,6.04
2022-09-20T19:35:04.374Z,6.04
2022-09-20T19:37:50.614Z,6.09
2022-09-20T19:40:50.868Z,6.04
2022-09-20T19:43:45.452Z,6.08
2022-09-20T19:46:36.775Z,6.06
2022-09-20T19:49:28.237Z,6.00
2022-09-20T19:51:57.867Z,5.88
2022-09-20T19:54:26.413Z,5.80
2022-09-20T19:56:57.190Z,5.79
2022-09-20T19:59:27.391Z,5.73
2022-09-20T20:01:56.626Z,5.71
2022-09-20T20:04:25.154Z,5.69
2022-09-20T20:07:27.767Z,5.66
2022-09-20T20:09:59.076Z,5.61
2022-09-20T20:12:33.102Z,5.53
2022-09-20T20:15:31.916Z,5.48
2022-09-20T20:18:07.518Z,5.49
2022-09-20T20:20:41.376Z,5.48
2022-09-20T20:23:55.771Z,5.49
2022-09-20T20:26:25.698Z,5.60
2022-09-20T20:28:53.935Z,5.69
2022-09-20T20:31:23.152Z,5.72
2022-09-20T20:33:51.725Z,5.73
2022-09-20T20:36:19.912Z,5.74
2022-09-20T20:38:50.173Z,5.74
2022-09-20T20:41:21.190Z,5.71
2022-09-20T20:43:56.447Z,5.64
2022-09-20T20:46:25.249Z,5.59
2022-09-20T20:48:53.559Z,5.58
2022-09-20T20:51:23.326Z,5.60
2022-09-20T20:53:54.014Z,5.63
2022-09-20T20:56:28.699Z,5.64
2022-09-20T20:59:01.025Z,5.68
2022-09-20T21:01:45.255Z,5.73
2022-09-20T21:04:15.822Z,5.73
2022-09-20T21:06:44.186Z,5.73
2022-09-20T21:09:13.523Z,5.69
2022-09-20T21:11:46.770Z,5.73
2022-09-20T21:14:15.896Z,5.70
2022-09-20T21:16:44.490Z,5.70
2022-09-20T21:19:18.429Z,5.72
2022-09-20T21:21:48.050Z,5.74
2022-09-20T21:24:20.156Z,5.77
2022-09-20T21:26:48.704Z,5.79
2022-09-20T21:29:17.338Z,5.78
2022-09-20T21:31:46.783Z,5.83
2022-09-20T21:34:16.334Z,5.90
2022-09-20T21:36:46.652Z,5.94
2022-09-20T21:39:14.743Z,6.03
2022-09-20T21:41:42.966Z,6.13
2022-09-20T21:44:12.228Z,6.24
2022-09-20T21:46:42.238Z,6.37
2022-09-20T21:49:12.354Z,6.51
2022-09-20T21:51:42.851Z,6.66
2022-09-20T21:54:11.587Z,6.76
2022-09-20T21:56:41.599Z,6.86
2022-09-20T21:59:09.982Z,6.96
2022-09-20T22:01:40.544Z,7.05
2022-09-20T22:04:11.272Z,7.12
2022-09-20T22:06:42.233Z,7.21
2022-09-20T22:09:13.236Z,7.28
2022-09-20T22:11:44.811Z,7.33
2022-09-20T22:14:14.536Z,7.32
2022-09-20T22:16:44.755Z,7.33
2022-09-20T22:19:17.043Z,7.31
2022-09-20T22:21:47.966Z,7.29
2022-09-20T22:24:17.570Z,7.28
2022-09-20T22:26:48.373Z,7.24
2022-09-20T22:29:17.145Z,7.24
2022-09-20T22:31:48.148Z,7.26
2022-09-20T22:34:21.634Z,7.25
2022-09-20T22:36:50.442Z,7.23
2022-09-20T22:39:18.583Z,7.23
2022-09-20T22:41:50.640Z,7.23
2022-09-20T22:44:18.733Z,7.17
2022-09-20T22:46:47.073Z,7.13
2022-09-20T22:49:15.232Z,7.15
2022-09-20T22:51:43.372Z,7.14
2022-09-20T22:54:12.515Z,7.16
2022-09-20T22:56:44.082Z,7.23
2022-09-20T22:59:14.548Z,7.24
2022-09-20T23:01:45.551Z,7.27
2022-09-20T23:04:20.361Z,7.23
2022-09-20T23:06:55.228Z,7.22
2022-09-20T23:09:25.963Z,7.13
2022-09-20T23:11:54.167Z,7.08
2022-09-20T23:14:23.284Z,7.06
2022-09-20T23:16:51.479Z,7.05
2022-09-20T23:19:19.595Z,7.07
2022-09-20T23:21:48.523Z,7.09
2022-09-20T23:24:16.830Z,7.12
2022-09-20T23:26:45.759Z,7.18
2022-09-20T23:29:16.020Z,7.23
2022-09-20T23:31:47.443Z,7.30
2022-09-20T23:34:17.702Z,7.38
2022-09-20T23:36:46.707Z,7.44
2022-09-20T23:39:15.361Z,7.50
2022-09-20T23:41:48.405Z,7.59
2022-09-20T23:44:19.589Z,7.69
2022-09-20T23:46:47.872Z,7.74
2022-09-20T23:49:16.058Z,7.81
2022-09-20T23:51:44.243Z,7.86
2022-09-20T23:54:12.554Z,7.87
2022-09-20T23:56:42.874Z,7.91
2022-09-20T23:59:11.316Z,7.89
